Time;durP1;ratioP1;P1;durP2;ratioP2;P2;SDS_P1;SDS_P2;PMS_P1;PMS_P2;Temp;Humidity;BMP_temperature;BMP_pressure;BME280_temperature;BME280_humidity;BME280_pressure;Samples;Min_cycle;Max_cycle;Signal;HPM_P1;HPM_P2
2021/05/27 00:00:47;;;;;;;4.23;2.87;;;;;;;;;;5095691;28;20203;-66
2021/05/27 00:03:16;;;;;;;3.33;3.00;;;;;;;;;;5095996;28;20200;-67
2021/05/27 00:05:44;;;;;;;3.43;3.13;;;;;;;;;;5095748;28;20211;-66
2021/05/27 00:08:12;;;;;;;3.70;3.40;;;;;;;;;;5095713;28;20199;-67
2021/05/27 00:10:39;;;;;;;3.10;2.90;;;;;;;;;;5095562;28;20204;-67
2021/05/27 00:13:07;;;;;;;3.77;3.47;;;;;;;;;;5095490;28;20222;-68
2021/05/27 00:15:40;;;;;;;3.13;2.83;;;;;;;;;;5095183;28;20201;-67
2021/05/27 00:18:08;;;;;;;3.20;2.90;;;;;;;;;;5095128;28;20204;-67
2021/05/27 00:20:36;;;;;;;6.07;3.33;;;;;;;;;;5095512;28;20283;-67
2021/05/27 00:23:04;;;;;;;3.83;3.53;;;;;;;;;;5095427;28;20199;-67
2021/05/27 00:25:32;;;;;;;3.50;3.20;;;;;;;;;;5094964;28;20243;-66
2021/05/27 00:27:59;;;;;;;3.80;3.30;;;;;;;;;;5095307;28;20210;-67
2021/05/27 00:30:27;;;;;;;5.13;3.30;;;;;;;;;;5076213;28;20194;-67
2021/05/27 00:32:55;;;;;;;3.60;3.30;;;;;;;;;;5076337;28;20319;-66
2021/05/27 00:35:22;;;;;;;4.10;3.70;;;;;;;;;;5077231;28;20866;-68
2021/05/27 00:37:51;;;;;;;3.77;3.47;;;;;;;;;;5077806;28;20524;-67
2021/05/27 00:40:19;;;;;;;4.10;3.70;;;;;;;;;;5074846;28;20297;-67
2021/05/27 00:42:47;;;;;;;3.87;3.30;;;;;;;;;;5075191;28;20196;-68
2021/05/27 00:45:16;;;;;;;4.83;3.73;;;;;;;;;;5074692;28;20201;-66
2021/05/27 00:47:44;;;;;;;4.27;3.87;;;;;;;;;;5074832;28;20204;-68
2021/05/27 00:50:20;;;;;;;4.20;3.80;;;;;;;;;;5074949;28;20303;-67
2021/05/27 00:52:48;;;;;;;4.37;3.97;;;;;;;;;;5074440;28;20546;-68
2021/05/27 00:55:18;;;;;;;4.10;3.70;;;;;;;;;;5074455;28;20554;-67
2021/05/27 00:57:45;;;;;;;4.67;4.23;;;;;;;;;;5074574;28;20200;-68
2021/05/27 01:00:15;;;;;;;4.93;4.43;;;;;;;;;;5074124;28;20200;-68
2021/05/27 01:02:43;;;;;;;7.10;4.70;;;;;;;;;;5074178;28;20715;-68
2021/05/27 01:05:12;;;;;;;5.03;4.53;;;;;;;;;;5074167;28;20209;-67
2021/05/27 01:07:40;;;;;;;4.87;4.47;;;;;;;;;;5074366;28;20291;-67
2021/05/27 01:10:09;;;;;;;7.17;4.80;;;;;;;;;;5074137;28;20211;-67
2021/05/27 01:12:38;;;;;;;4.87;4.47;;;;;;;;;;5073934;28;20255;-68
2021/05/27 01:17:52;;;;;;;5.77;5.27;;;;;;;;;;5074085;28;20188;-67
2021/05/27 01:20:20;;;;;;;5.67;5.17;;;;;;;;;;5074149;28;20200;-68
2021/05/27 01:22:49;;;;;;;5.47;4.97;;;;;;;;;;5074030;28;20623;-69
2021/05/27 01:25:16;;;;;;;6.77;5.30;;;;;;;;;;5073880;28;20201;-67
2021/05/27 01:27:44;;;;;;;5.67;5.03;;;;;;;;;;5073912;28;20299;-67
2021/05/27 01:30:12;;;;;;;6.33;5.73;;;;;;;;;;5089823;28;20663;-68
2021/05/27 01:32:40;;;;;;;5.83;5.33;;;;;;;;;;5094079;28;20219;-68
2021/05/27 01:35:13;;;;;;;6.37;5.77;;;;;;;;;;5093989;28;20199;-67
2021/05/27 01:37:41;;;;;;;5.70;5.20;;;;;;;;;;5094022;28;20181;-67
2021/05/27 01:40:10;;;;;;;6.83;5.47;;;;;;;;;;5093905;28;20217;-67
2021/05/27 01:42:38;;;;;;;7.70;5.83;;;;;;;;;;5093805;28;20199;-68
2021/05/27 01:45:07;;;;;;;6.17;5.60;;;;;;;;;;5093691;28;20200;-69
2021/05/27 01:47:34;;;;;;;6.50;5.90;;;;;;;;;;5093873;28;20601;-69
2021/05/27 01:50:03;;;;;;;5.90;5.40;;;;;;;;;;5093727;28;20204;-67
2021/05/27 01:52:31;;;;;;;5.90;5.30;;;;;;;;;;5093527;28;20324;-68
2021/05/27 01:54:58;;;;;;;6.53;5.93;;;;;;;;;;5093181;28;20200;-67
2021/05/27 01:57:27;;;;;;;6.97;6.27;;;;;;;;;;5093573;28;20196;-67
2021/05/27 01:59:55;;;;;;;6.40;5.70;;;;;;;;;;5093449;28;20231;-68
2021/05/27 02:02:22;;;;;;;6.90;6.23;;;;;;;;;;5093501;28;20291;-67
2021/05/27 02:04:50;;;;;;;6.73;6.13;;;;;;;;;;5093236;28;20762;-67
2021/05/27 02:07:18;;;;;;;6.43;5.83;;;;;;;;;;5093515;28;20286;-67
2021/05/27 02:09:45;;;;;;;6.87;6.17;;;;;;;;;;5093386;28;20224;-68
2021/05/27 02:12:13;;;;;;;6.67;6.07;;;;;;;;;;5093065;28;20215;-67
2021/05/27 02:14:41;;;;;;;6.43;5.83;;;;;;;;;;5093235;28;20200;-67
2021/05/27 02:17:09;;;;;;;7.20;6.60;;;;;;;;;;5093284;28;20200;-67
2021/05/27 02:19:37;;;;;;;6.77;6.17;;;;;;;;;;5093295;28;20206;-68
2021/05/27 02:22:04;;;;;;;7.63;6.83;;;9.30;99.90;;;;;;5093182;28;20203;-67
2021/05/27 02:24:32;;;;;;;7.23;6.53;;;9.30;99.90;;;;;;5092968;28;20663;-67
2021/05/27 02:26:59;;;;;;;7.07;6.40;;;9.30;99.90;;;;;;5093071;28;20616;-67
2021/05/27 02:29:26;;;;;;;7.87;6.60;;;9.30;99.90;;;;;;5082286;28;20653;-67
2021/05/27 02:31:54;;;;;;;9.43;6.50;;;9.30;99.90;;;;;;5072770;28;20197;-67
2021/05/27 02:34:23;;;;;;;6.90;6.30;;;9.40;99.90;;;;;;5072945;28;20205;-68
2021/05/27 02:36:50;;;;;;;7.07;6.03;;;9.40;99.90;;;;;;5072758;28;20204;-68
2021/05/27 02:39:18;;;;;;;7.13;6.43;;;9.40;99.90;;;;;;5064559;28;20201;-68
2021/05/27 02:41:45;;;;;;;6.97;6.27;;;9.50;99.90;;;;;;5072356;28;20201;-68
2021/05/27 02:44:12;;;;;;;6.83;6.23;;;9.30;99.90;;;;;;5072487;28;20639;-68
2021/05/27 02:46:40;;;;;;;7.00;6.07;;;9.30;99.90;;;;;;5072710;28;20211;-67
2021/05/27 02:49:08;;;;;;;6.33;5.73;;;9.30;99.90;;;;;;5072483;28;20204;-68
2021/05/27 02:51:35;;;;;;;7.00;6.37;;;9.40;99.90;;;;;;5072603;28;20243;-67
2021/05/27 02:54:03;;;;;;;7.10;6.00;;;9.30;99.90;;;;;;5072476;28;20220;-69
2021/05/27 02:56:31;;;;;;;6.80;6.10;;;9.30;99.90;;;;;;5072227;28;20204;-68
2021/05/27 02:58:58;;;;;;;6.30;5.70;;;9.40;99.90;;;;;;5072617;28;20224;-68
2021/05/27 03:01:26;;;;;;;6.77;6.13;;;9.40;99.90;;;;;;5072451;28;20201;-68
2021/05/27 03:03:53;;;;;;;6.37;5.60;;;9.50;99.90;;;;;;5072239;28;20284;-68
2021/05/27 03:06:21;;;;;;;6.27;5.67;;;9.50;99.90;;;;;;5072577;28;20201;-68
2021/05/27 03:08:48;;;;;;;6.60;6.00;;;9.50;99.90;;;;;;5072534;28;20200;-68
2021/05/27 03:11:16;;;;;;;7.10;6.40;;;9.50;99.90;;;;;;5071874;28;20200;-68
2021/05/27 03:13:43;;;;;;;6.70;6.10;;;9.50;99.90;;;;;;5071986;28;20700;-69
2021/05/27 03:16:10;;;;;;;6.47;5.87;;;9.50;99.90;;;;;;5072263;28;20200;-68
2021/05/27 03:18:38;;;;;;;6.93;6.23;;;9.50;99.90;;;;;;5071891;28;20203;-67
2021/05/27 03:21:05;;;;;;;6.50;5.90;;;9.60;99.90;;;;;;5072524;28;20291;-68
2021/05/27 03:23:33;;;;;;;6.60;6.00;;;9.60;99.90;;;;;;5072276;28;20196;-67
2021/05/27 03:26:01;;;;;;;6.50;5.90;;;9.60;99.90;;;;;;5072313;28;20197;-68
2021/05/27 03:28:28;;;;;;;8.33;6.33;;;9.40;99.90;;;;;;5074706;28;20292;-68
2021/05/27 03:30:56;;;;;;;6.83;6.23;;;9.50;99.90;;;;;;5092369;28;20200;-67
2021/05/27 03:33:24;;;;;;;7.40;6.27;;;9.50;99.90;;;;;;5092392;28;20218;-69
2021/05/27 03:35:51;;;;;;;7.27;6.40;;;9.50;99.90;;;;;;5092284;28;20210;-68
2021/05/27 03:38:19;;;;;;;7.13;6.53;;;9.50;99.90;;;;;;5092388;28;20263;-68
2021/05/27 03:40:47;;;;;;;7.40;6.53;;;9.40;99.90;;;;;;5092320;28;20222;-67
2021/05/27 03:43:14;;;;;;;7.47;6.37;;;9.40;99.90;;;;;;5092343;28;20198;-68
2021/05/27 03:45:41;;;;;;;7.53;6.80;;;9.50;99.90;;;;;;5091895;28;20204;-67
2021/05/27 03:48:09;;;;;;;7.67;6.27;;;9.50;99.90;;;;;;5092401;28;20229;-68
2021/05/27 03:50:37;;;;;;;7.60;6.60;;;9.60;99.90;;;;;;5092140;28;20206;-68
2021/05/27 03:53:07;;;;;;;6.93;6.33;;;9.60;99.90;;;;;;5092862;28;20204;-67
2021/05/27 03:55:34;;;;;;;7.40;6.70;;;9.70;99.90;;;;;;5095895;28;20200;-67
2021/05/27 04:00:40;;;;;;;6.73;6.03;;;9.70;99.90;;;;;;5095901;28;20288;-68
2021/05/27 04:00:49;;;;;;;6.53;5.93;;;9.80;99.90;;;;;;5095981;28;20184;-67
2021/05/27 04:03:17;;;;;;;8.23;6.47;;;9.80;99.90;;;;;;5095762;28;20200;-68
2021/05/27 04:08:30;;;;;;;9.10;6.37;;;9.80;99.90;;;;;;5095480;28;20523;-67
2021/05/27 04:10:58;;;;;;;7.27;6.57;;;9.90;99.90;;;;;;5095218;28;20636;-68
2021/05/27 04:13:30;;;;;;;6.67;5.97;;;10.00;99.90;;;;;;5095311;28;20208;-68
2021/05/27 04:15:58;;;;;;;6.70;6.10;;;10.00;99.90;;;;;;5095573;28;20242;-68
2021/05/27 04:18:25;;;;;;;7.17;6.47;;;10.00;99.90;;;;;;5095326;28;20204;-67
2021/05/27 04:20:55;;;;;;;6.90;6.20;;;10.10;99.90;;;;;;5095227;28;20230;-69
2021/05/27 04:23:35;;;;;;;6.73;6.13;;;10.10;99.90;;;;;;5095262;28;20249;-67
2021/05/27 04:26:03;;;;;;;7.23;6.27;;;10.20;99.90;;;;;;5094741;28;20235;-69
2021/05/27 04:28:32;;;;;;;7.23;6.53;;;10.30;99.90;;;;;;5092103;28;20211;-68
2021/05/27 04:31:08;;;;;;;7.27;6.67;;;10.40;99.90;;;;;;5074895;28;20200;-69
2021/05/27 04:33:37;;;;;;;7.27;6.07;;;10.40;99.90;;;;;;5074729;28;20652;-69
2021/05/27 04:36:05;;;;;;;6.57;6.00;;;10.60;99.90;;;;;;5074841;28;20201;-68
2021/05/27 04:38:32;;;;;;;6.83;6.13;;;10.60;99.90;;;;;;5074505;28;20193;-70
2021/05/27 04:41:00;;;;;;;6.50;5.90;;;10.60;99.90;;;;;;5074703;28;20201;-69
2021/05/27 04:43:28;;;;;;;6.60;5.83;;;10.70;99.90;;;;;;5074774;28;20287;-68
2021/05/27 04:45:56;;;;;;;6.63;6.00;;;10.80;99.90;;;;;;5074809;28;20291;-68
2021/05/27 04:48:23;;;;;;;6.50;5.90;;;10.80;99.90;;;;;;5074879;28;20624;-67
2021/05/27 04:50:52;;;;;;;6.27;5.77;;;10.70;99.90;;;;;;5070144;28;20328;-69
2021/05/27 04:53:21;;;;;;;7.07;6.30;;;10.70;99.90;;;;;;5054638;28;20205;-69
2021/05/27 04:55:49;;;;;;;6.10;5.50;;;10.90;99.90;;;;;;5054465;28;20284;-69
2021/05/27 04:58:16;;;;;;;6.27;5.77;;;11.10;99.90;;;;;;5054575;28;20201;-69
2021/05/27 05:00:44;;;;;;;6.20;5.60;;;11.10;99.90;;;;;;5054265;28;20201;-68
2021/05/27 05:03:12;;;;;;;6.30;5.77;;;11.00;99.90;;;;;;5054368;28;20204;-70
2021/05/27 05:05:40;;;;;;;6.43;5.87;;;11.30;99.90;;;;;;5053250;28;20292;-70
2021/05/27 05:08:07;;;;;;;6.77;5.87;;;11.40;99.90;;;;;;5054371;28;20216;-68
2021/05/27 05:10:37;;;;;;;6.17;5.57;;;11.50;99.90;;;;;;5054259;28;20201;-69
2021/05/27 05:13:05;;;;;;;6.53;5.93;;;11.50;99.90;;;;;;5054150;28;20219;-69
2021/05/27 05:15:34;;;;;;;6.10;5.60;;;11.50;99.90;;;;;;5054116;28;20240;-67
2021/05/27 05:18:04;;;;;;;6.50;5.77;;;11.60;99.90;;;;;;5054165;28;20211;-68
2021/05/27 05:20:33;;;;;;;6.53;5.80;;;11.60;99.90;;;;;;5053738;28;20297;-70
2021/05/27 05:23:01;;;;;;;6.10;5.50;;;11.60;99.90;;;;;;5053665;28;20201;-69
2021/05/27 05:25:30;;;;;;;6.23;5.73;;;11.70;99.90;;;;;;5053318;28;20281;-68
2021/05/27 05:27:58;;;;;;;7.50;5.87;;;11.70;99.90;;;;;;5053811;28;20297;-69
2021/05/27 05:30:27;;;;;;;6.60;6.00;;;11.70;99.90;;;;;;5085595;28;20200;-69
2021/05/27 05:32:55;;;;;;;6.57;5.87;;;11.70;99.90;;;;;;5080594;28;20566;-68
2021/05/27 05:35:23;;;;;;;6.37;5.73;;;11.60;99.90;;;;;;5073845;28;20201;-69
2021/05/27 05:37:52;;;;;;;8.23;6.10;;;11.50;99.90;;;;;;5073708;28;20284;-69
2021/05/27 05:40:22;;;;;;;7.53;6.27;;;11.40;99.90;;;;;;5073454;28;20251;-68
2021/05/27 05:42:51;;;;;;;6.80;5.77;;;11.50;99.90;;;;;;5073459;28;20185;-68
2021/05/27 05:45:20;;;;;;;6.40;5.60;;;11.50;99.90;;;;;;5073045;28;20204;-69
2021/05/27 05:47:48;;;;;;;6.47;5.87;;;11.50;99.90;;;;;;5073405;28;20234;-68
2021/05/27 05:50:44;;;;;;;6.57;5.90;;;11.60;99.90;;;;;;5073018;28;20211;-68
2021/05/27 05:53:04;;;;;;;6.77;6.13;;;11.60;99.90;;;;;;5072963;28;20295;-68
2021/05/27 05:55:33;;;;;;;6.50;5.90;;;11.70;99.90;;;;;;5073208;28;20228;-69
2021/05/27 05:58:02;;;;;;;7.67;6.27;;;11.70;99.90;;;;;;5073146;28;20201;-69
2021/05/27 06:00:29;;;;;;;6.53;5.57;;;11.70;99.90;;;;;;5072945;28;20296;-67
2021/05/27 06:02:57;;;;;;;6.53;5.93;;;11.70;99.90;;;;;;5073198;28;20201;-68
2021/05/27 06:05:24;;;;;;;7.13;5.60;;;11.80;99.90;;;;;;5073059;28;20197;-69
2021/05/27 06:07:53;;;;;;;6.30;5.60;;;11.80;99.90;;;;;;5072898;28;20547;-68
2021/05/27 06:10:21;;;;;;;5.90;5.40;;;11.70;99.90;;;;;;5072071;28;20196;-69
2021/05/27 06:12:49;;;;;;;6.80;6.13;;;11.80;99.90;;;;;;5069728;28;20645;-69
2021/05/27 06:15:20;;;;;;;7.40;6.17;;;11.70;99.90;;;;;;5072198;28;20253;-69
2021/05/27 06:17:56;;;;;;;6.40;5.73;;;11.60;99.90;;;;;;5072767;28;20180;-67
2021/05/27 06:20:23;;;;;;;7.43;5.80;;;11.80;99.90;;;;;;5072881;28;20299;-69
2021/05/27 06:22:52;;;;;;;6.20;5.60;;;11.70;99.90;;;;;;5072136;28;20195;-68
2021/05/27 06:25:21;;;;;;;5.80;5.30;;;11.70;99.90;;;;;;5072585;28;20188;-69
2021/05/27 06:27:49;;;;;;;5.50;5.00;;;11.70;99.90;;;;;;5072473;28;20223;-68
2021/05/27 06:30:18;;;;;;;6.80;5.23;;;11.80;99.90;;;;;;5090290;28;20199;-69
2021/05/27 06:32:45;;;;;;;5.30;4.80;;;11.80;99.90;;;;;;5093054;28;20196;-69
2021/05/27 06:35:15;;;;;;;5.23;4.73;;;11.80;99.90;;;;;;5092648;28;20756;-69
2021/05/27 06:37:42;;;;;;;6.17;4.83;;;11.80;99.90;;;;;;5092809;28;20260;-68
2021/05/27 06:40:13;;;;;;;5.20;4.70;;;11.90;99.90;;;;;;5092602;28;20670;-69
2021/05/27 06:42:42;;;;;;;4.93;4.27;;;12.00;99.90;;;;;;5080413;28;20288;-69
2021/05/27 06:45:11;;;;;;;4.50;4.10;;;11.90;99.90;;;;;;5072380;28;20288;-69
2021/05/27 06:47:39;;;;;;;4.47;4.07;;;12.00;99.90;;;;;;5071984;28;20703;-70
2021/05/27 06:50:12;;;;;;;4.17;3.87;;;12.00;99.90;;;;;;5071970;28;20697;-69
2021/05/27 06:52:39;;;;;;;4.87;3.93;;;12.10;99.90;;;;;;5072035;28;20239;-70
2021/05/27 06:55:08;;;;;;;5.30;4.00;;;12.20;99.90;;;;;;5071977;28;20325;-66
2021/05/27 06:57:35;;;;;;;4.10;3.70;;;12.20;99.90;;;;;;5089915;28;20562;-66
2021/05/27 07:00:06;;;;;;;4.30;3.90;;;12.20;99.90;;;;;;5092109;28;20204;-68
2021/05/27 07:02:33;;;;;;;4.33;3.93;;;12.20;99.90;;;;;;5092527;28;20196;-70
2021/05/27 07:05:00;;;;;;;4.40;4.00;;;12.10;99.90;;;;;;5092646;28;20337;-71
2021/05/27 07:07:28;;;;;;;3.70;3.40;;;12.10;99.90;;;;;;5092491;28;20196;-67
2021/05/27 07:09:55;;;;;;;5.17;3.40;;;12.10;99.90;;;;;;5092501;28;20290;-74
2021/05/27 07:12:22;;;;;;;4.03;3.63;;;12.10;99.90;;;;;;5092264;28;20284;-75
2021/05/27 07:14:50;;;;;;;4.13;3.73;;;12.10;99.90;;;;;;5092226;28;20247;-68
2021/05/27 07:17:18;;;;;;;4.50;4.10;;;12.10;99.90;;;;;;5092314;28;20238;-70
2021/05/27 07:19:45;;;;;;;4.47;4.07;;;12.00;99.90;;;;;;5092486;28;20608;-70
2021/05/27 07:22:13;;;;;;;4.53;4.13;;;12.10;99.90;;;;;;5092492;28;20202;-71
2021/05/27 07:24:40;;;;;;;4.13;3.77;;;12.10;99.90;;;;;;5092299;28;20200;-70
2021/05/27 07:27:07;;;;;;;3.97;3.53;;;12.20;99.90;;;;;;5092102;28;20203;-70
2021/05/27 07:29:35;;;;;;;4.17;3.83;;;12.30;99.90;;;;;;5082731;28;20300;-69
2021/05/27 07:32:05;;;;;;;4.10;3.70;;;12.40;99.90;;;;;;5075732;28;20283;-70
2021/05/27 07:34:33;;;;;;;3.83;3.53;;;12.60;99.90;;;;;;5075921;28;20212;-69
2021/05/27 07:37:00;;;;;;;4.33;3.50;;;12.70;99.90;;;;;;5075800;28;20201;-70
2021/05/27 07:39:27;;;;;;;4.03;3.60;;;12.70;99.90;;;;;;5075260;28;20201;-71
2021/05/27 07:41:55;;;;;;;5.97;3.90;;;12.80;99.90;;;;;;5075599;28;20208;-70
2021/05/27 07:44:22;;;;;;;4.73;4.00;;;12.80;99.90;;;;;;5075538;28;20224;-70
2021/05/27 07:46:50;;;;;;;3.40;3.10;;;12.70;99.90;;;;;;5075129;28;20196;-70
2021/05/27 07:49:17;;;;;;;3.63;3.33;;;12.80;99.90;;;;;;5074935;28;20208;-68
2021/05/27 07:51:47;;;;;;;4.23;3.60;;;12.80;99.90;;;;;;5074865;28;20233;-70
2021/05/27 07:54:14;;;;;;;4.03;3.63;;;12.80;99.90;;;;;;5074787;28;20319;-70
2021/05/27 07:56:41;;;;;;;5.40;3.90;;;12.70;99.90;;;;;;5074695;28;20201;-70
2021/05/27 07:59:13;;;;;;;3.77;3.47;;;12.50;99.90;;;;;;5075494;28;20240;-70
2021/05/27 08:01:41;;;;;;;2.37;2.17;;;12.30;99.90;;;;;;5075444;28;20200;-69
2021/05/27 08:04:08;;;;;;;1.97;1.30;;;12.10;99.90;;;;;;5074976;28;20796;-70
2021/05/27 08:06:36;;;;;;;1.13;1.00;;;11.70;99.90;;;;;;5075291;28;20205;-69
2021/05/27 08:09:06;;;;;;;2.40;0.80;;;11.40;99.90;;;;;;5075292;28;20258;-69
2021/05/27 08:11:34;;;;;;;3.80;0.67;;;11.20;99.90;;;;;;5074504;28;20189;-70
2021/05/27 08:14:01;;;;;;;0.90;0.60;;;11.10;99.90;;;;;;5075085;28;20259;-70
2021/05/27 08:16:29;;;;;;;1.37;1.27;;;10.90;99.90;;;;;;5074909;28;20291;-69
2021/05/27 08:18:57;;;;;;;1.33;0.80;;;10.80;99.90;;;;;;5075185;28;20244;-70
2021/05/27 08:21:24;;;;;;;0.93;0.80;;;10.70;99.90;;;;;;5074481;28;20556;-69
2021/05/27 08:23:52;;;;;;;0.77;0.70;;;10.60;99.90;;;;;;5074403;28;20720;-69
2021/05/27 08:26:20;;;;;;;1.10;0.80;;;10.60;99.90;;;;;;5074426;28;20232;-69
2021/05/27 08:28:47;;;;;;;0.80;0.80;;;10.50;99.90;;;;;;5079981;28;20212;-70
2021/05/27 08:31:15;;;;;;;1.07;1.00;;;10.50;99.90;;;;;;5094542;28;20553;-69
2021/05/27 08:33:44;;;;;;;2.70;1.00;;;10.50;99.90;;;;;;5094839;28;20204;-71
2021/05/27 08:36:11;;;;;;;1.10;0.93;;;10.50;99.90;;;;;;5094765;28;20224;-69
2021/05/27 08:38:39;;;;;;;1.20;1.10;;;10.40;99.90;;;;;;5094396;28;20672;-69
2021/05/27 08:41:06;;;;;;;1.10;0.97;;;10.40;99.90;;;;;;5094383;28;20917;-69
2021/05/27 08:43:35;;;;;;;0.93;0.87;;;10.50;99.90;;;;;;5095109;28;20243;-70
2021/05/27 08:46:04;;;;;;;2.73;1.00;;;10.50;99.90;;;;;;5094623;28;20204;-70
2021/05/27 08:48:31;;;;;;;1.10;1.00;;;10.50;99.90;;;;;;5094346;28;20628;-70
2021/05/27 08:50:59;;;;;;;1.73;1.03;;;10.50;99.90;;;;;;5094510;28;20606;-69
2021/05/27 08:53:27;;;;;;;1.73;0.90;;;10.50;99.90;;;;;;5094059;28;20725;-69
2021/05/27 08:55:55;;;;;;;1.23;1.13;;;10.50;99.90;;;;;;5094444;28;20236;-70
2021/05/27 08:58:23;;;;;;;1.20;1.10;;;10.60;99.90;;;;;;5094570;28;20284;-69
2021/05/27 09:00:52;;;;;;;1.50;1.40;;;10.60;99.90;;;;;;5094409;28;20202;-69
2021/05/27 09:03:20;;;;;;;1.60;1.50;;;10.60;99.90;;;;;;5094083;28;20200;-69
2021/05/27 09:05:58;;;;;;;2.57;1.57;;;10.70;99.90;;;;;;5094340;28;20206;-69
2021/05/27 09:08:28;;;;;;;2.07;1.70;;;10.80;99.90;;;;;;5089867;28;20258;-71
2021/05/27 09:11:01;;;;;;;2.93;2.20;;;10.90;99.90;;;;;;5093378;28;20204;-71
2021/05/27 09:13:29;;;;;;;2.67;2.43;;;10.90;99.90;;;;;;5094232;28;20571;-70
2021/05/27 09:16:07;;;;;;;1.70;1.60;;;10.90;99.90;;;;;;5094100;28;20242;-70
2021/05/27 09:18:37;;;;;;;2.93;1.20;;;11.00;99.90;;;;;;5094282;28;20242;-69
2021/05/27 09:21:06;;;;;;;2.17;1.80;;;11.00;99.90;;;;;;5093535;28;20286;-69
2021/05/27 09:23:34;;;;;;;3.03;1.20;;;11.00;99.90;;;;;;5093522;28;20196;-63
2021/05/27 09:26:07;;;;;;;1.50;1.40;;;10.90;99.90;;;;;;5093714;28;20205;-65
2021/05/27 09:28:35;;;;;;;2.30;2.10;;;10.80;99.90;;;;;;5090578;28;20240;-67
2021/05/27 09:31:06;;;;;;;2.47;2.27;;;10.90;99.90;;;;;;5072989;28;20232;-68
2021/05/27 09:33:36;;;;;;;2.50;1.53;;;11.00;99.90;;;;;;5073533;28;20589;-65
2021/05/27 09:36:05;;;;;;;2.30;1.73;;;11.00;99.90;;;;;;5072965;28;20323;-67
2021/05/27 09:38:35;;;;;;;2.20;2.00;;;11.20;99.90;;;;;;5073469;28;20243;-67
2021/05/27 09:41:14;;;;;;;2.80;2.00;;;11.50;99.90;;;;;;5073243;28;20246;-68
2021/05/27 09:43:43;;;;;;;2.57;2.37;;;;;;;;;;5073357;28;20304;-66
2021/05/27 09:46:12;;;;;;;2.67;2.47;;;;;;;;;;5073014;28;20744;-66
2021/05/27 09:48:39;;;;;;;4.30;2.10;;;11.50;99.90;;;;;;5073095;28;20533;-68
2021/05/27 09:51:07;;;;;;;1.97;1.77;;;11.60;99.90;;;;;;5072366;28;20640;-69
2021/05/27 09:53:35;;;;;;;2.60;2.20;;;11.60;99.90;;;;;;5073263;28;20223;-67
2021/05/27 09:56:04;;;;;;;2.53;2.33;;;11.60;99.90;;;;;;5073079;28;20235;-67
2021/05/27 09:58:32;;;;;;;2.63;2.40;;;11.60;99.90;;;;;;5073276;28;20201;-67
2021/05/27 10:01:08;;;;;;;3.10;2.83;;;11.90;99.90;;;;;;5072654;28;20307;-69
2021/05/27 10:03:39;;;;;;;2.70;2.50;;;12.30;99.90;;;;;;5072817;28;20272;-66
2021/05/27 10:06:09;;;;;;;2.53;2.20;;;12.70;99.90;;;;;;5073186;28;20268;-64
2021/05/27 10:08:50;;;;;;;4.47;1.87;;;12.90;99.90;;;;;;5072795;28;20747;-72
2021/05/27 10:11:19;;;;;;;2.07;1.70;;;13.10;99.90;;;;;;5072685;28;20235;-66
2021/05/27 10:13:47;;;;;;;1.80;1.53;;;13.20;99.90;;;;;;5072884;28;20295;-67
2021/05/27 10:16:16;;;;;;;1.73;1.00;;;13.40;99.90;;;;;;5072845;28;20223;-66
2021/05/27 10:18:45;;;;;;;1.10;1.00;;;13.40;99.90;;;;;;5072488;28;20549;-66
2021/05/27 10:21:13;;;;;;;0.90;0.80;;;13.50;99.90;;;;;;5072536;28;20639;-62
2021/05/27 10:23:41;;;;;;;1.13;1.00;;;13.80;99.90;;;;;;5072682;28;20205;-70
2021/05/27 10:26:11;;;;;;;0.83;0.60;;;13.90;99.90;;;;;;5072777;28;20216;-69
2021/05/27 10:28:45;;;;;;;1.40;0.80;;;14.00;99.90;;;;;;5077204;28;20222;-66
2021/05/27 10:31:15;;;;;;;1.13;0.60;;;14.00;99.90;;;;;;5093405;28;20287;-73
2021/05/27 10:33:44;;;;;;;0.80;0.80;;;13.80;99.90;;;;;;5093315;28;20715;-68
2021/05/27 10:36:11;;;;;;;1.70;0.97;;;13.70;99.90;;;;;;5093365;28;20319;-68
2021/05/27 10:38:51;;;;;;;1.20;1.00;;;13.60;99.90;;;;;;5092938;28;20219;-69
2021/05/27 10:41:35;;;;;;;1.10;1.00;;;13.30;99.90;;;;;;5092849;28;20180;-66
2021/05/27 10:44:15;;;;;;;1.87;1.10;;;13.20;99.90;;;;;;5091320;28;20291;-70
2021/05/27 10:47:19;;;;;;;2.70;1.30;;;12.80;99.90;;;;;;5092756;28;20182;-66
2021/05/27 10:49:56;;;;;;;1.47;1.20;;;12.60;99.90;;;;;;5092445;28;20238;-68
2021/05/27 10:52:41;;;;;;;2.60;1.40;;;12.50;99.90;;;;;;5092601;28;20653;-66
2021/05/27 10:55:52;;;;;;;2.10;1.43;;;12.60;99.90;;;;;;5092994;28;20212;-73
2021/05/27 10:58:41;;;;;;;2.10;1.17;;;12.70;99.90;;;;;;5092737;28;20249;-69
2021/05/27 11:01:09;;;;;;;1.53;1.30;;;12.90;99.90;;;;;;5092075;28;20204;-67
2021/05/27 11:03:46;;;;;;;2.00;1.70;;;13.00;99.90;;;;;;5093466;28;20629;-65
2021/05/27 11:06:27;;;;;;;1.97;1.40;;;13.20;99.90;;;;;;5096659;28;20282;-65
2021/05/27 11:09:31;;;;;;;1.47;1.37;;;13.20;99.90;;;;;;5096608;28;20184;-63
2021/05/27 11:12:10;;;;;;;1.57;1.20;;;13.30;99.90;;;;;;5063764;28;20674;-68
2021/05/27 11:14:40;;;;;;;1.30;1.20;;;13.30;99.90;;;;;;5055909;28;20208;-66
2021/05/27 11:17:19;;;;;;;1.20;1.10;;;13.20;99.90;;;;;;5057519;28;20201;-67
2021/05/27 11:19:51;;;;;;;1.87;1.40;;;13.10;99.90;;;;;;5074490;28;20233;-67
2021/05/27 11:25:35;;;;;;;1.80;1.00;;;12.60;99.90;;;;;;5069916;28;20206;-67
2021/05/27 11:28:27;;;;;;;1.93;1.20;;;12.50;99.90;;;;;;5076147;28;20182;-67
2021/05/27 11:30:57;;;;;;;2.87;1.50;;;12.40;99.90;;;;;;5056166;28;20189;-67
2021/05/27 11:33:34;;;;;;;1.60;1.50;;;12.30;99.90;;;;;;5056221;28;20205;-68
2021/05/27 11:36:18;;;;;;;1.30;1.10;;;12.30;99.90;;;;;;5055747;28;20209;-67
2021/05/27 11:38:47;;;;;;;1.67;1.57;;;12.30;99.90;;;;;;5056065;28;20186;-68
2021/05/27 11:41:18;;;;;;;1.40;1.30;;;12.40;99.90;;;;;;5055885;28;20340;-68
2021/05/27 11:43:48;;;;;;;0.97;0.97;;;12.50;99.90;;;;;;5056201;28;20186;-68
2021/05/27 11:46:17;;;;;;;1.50;1.40;;;12.50;99.90;;;;;;5055857;28;20277;-68
2021/05/27 11:51:33;;;;;;;1.40;1.30;;;12.50;99.90;;;;;;5052440;28;20741;-68
2021/05/27 11:54:05;;;;;;;1.80;1.50;;;12.60;99.90;;;;;;5055738;28;20182;-68
2021/05/27 11:56:42;;;;;;;1.57;1.30;;;12.80;99.90;;;;;;5055593;28;20225;-69
2021/05/27 11:59:12;;;;;;;1.27;1.17;;;12.90;99.90;;;;;;5055709;28;20223;-68
2021/05/27 12:01:41;;;;;;;1.87;1.40;;;13.10;99.90;;;;;;5055323;28;20716;-68
2021/05/27 12:04:11;;;;;;;1.30;1.20;;;13.30;99.90;;;;;;5055497;28;20218;-68
2021/05/27 12:06:50;;;;;;;1.40;1.30;;;13.50;99.90;;;;;;5055424;28;20200;-70
2021/05/27 12:09:23;;;;;;;1.50;1.40;;;13.60;99.90;;;;;;5055276;28;20235;-68
2021/05/27 12:11:51;;;;;;;1.30;1.20;;;13.80;99.90;;;;;;5055071;28;20205;-68
2021/05/27 12:14:18;;;;;;;1.37;1.10;;;13.80;99.90;;;;;;5054584;28;20213;-59
2021/05/27 12:16:46;;;;;;;1.70;1.17;;;13.70;99.90;;;;;;5055039;28;20316;-59
2021/05/27 12:19:13;;;;;;;1.30;1.13;;;13.60;99.90;;;;;;5055025;28;20237;-60
2021/05/27 12:21:55;;;;;;;1.37;1.27;;;13.70;99.90;;;;;;5055125;28;20296;-60
2021/05/27 12:24:28;;;;;;;1.33;1.23;;;13.80;99.90;;;;;;5059589;28;20275;-59
2021/05/27 12:26:56;;;;;;;1.20;1.10;;;13.90;99.90;;;;;;5072442;28;20192;-60
2021/05/27 12:29:24;;;;;;;1.10;1.00;;;14.00;99.90;;;;;;5085261;28;20291;-61
2021/05/27 12:31:52;;;;;;;1.37;1.27;;;14.10;99.90;;;;;;5094863;28;20650;-60
2021/05/27 12:34:20;;;;;;;1.63;1.00;;;14.20;99.90;;;;;;5095189;28;20207;-59
2021/05/27 12:36:57;;;;;;;3.00;2.30;;;14.00;99.90;;;;;;5091445;28;20599;-60
2021/05/27 12:39:37;;;;;;;1.87;1.20;;;13.90;99.90;;;;;;5074778;28;20193;-59
2021/05/27 12:42:06;;;;;;;1.20;1.10;;;13.80;99.90;;;;;;5074678;28;20201;-59
2021/05/27 12:44:40;;;;;;;1.93;1.20;;;13.60;99.90;;;;;;5074764;28;20284;-59
2021/05/27 12:47:12;;;;;;;1.43;1.33;;;13.60;99.90;;;;;;5074922;28;20201;-60
2021/05/27 12:49:39;;;;;;;1.20;1.10;;;13.70;99.90;;;;;;5074628;28;20200;-59
2021/05/27 12:52:07;;;;;;;0.90;0.90;;;13.60;99.90;;;;;;5074585;28;20232;-60
2021/05/27 12:54:35;;;;;;;1.20;1.10;;;13.40;99.90;;;;;;5074436;28;20744;-60
2021/05/27 12:57:07;;;;;;;1.30;1.20;;;13.30;99.90;;;;;;5074354;28;20221;-60
2021/05/27 12:59:35;;;;;;;1.20;1.10;;;13.20;99.90;;;;;;5074258;28;20203;-60
2021/05/27 13:02:05;;;;;;;2.80;1.00;;;13.20;99.90;;;;;;5074342;28;20292;-61
2021/05/27 13:04:39;;;;;;;1.47;1.30;;;13.30;99.90;;;;;;5074396;28;20188;-60
2021/05/27 13:07:09;;;;;;;1.50;1.40;;;13.40;99.90;;;;;;5074135;28;20201;-59
2021/05/27 13:09:45;;;;;;;1.33;1.23;;;13.40;99.90;;;;;;5074309;28;20631;-61
2021/05/27 13:12:16;;;;;;;1.73;1.27;;;13.40;99.90;;;;;;5074544;28;20222;-61
2021/05/27 13:14:45;;;;;;;1.73;1.20;;;13.40;99.90;;;;;;5071995;28;20649;-61
2021/05/27 13:17:15;;;;;;;1.37;1.07;;;13.40;99.90;;;;;;5073899;28;20779;-60
2021/05/27 13:19:43;;;;;;;1.67;1.23;;;13.40;99.90;;;;;;5074553;28;20201;-60
2021/05/27 13:22:25;;;;;;;1.40;1.30;;;13.40;99.90;;;;;;5074008;28;20547;-61
2021/05/27 13:25:02;;;;;;;1.43;1.20;;;13.40;99.90;;;;;;5074067;28;20236;-60
2021/05/27 13:27:35;;;;;;;1.43;1.23;;;13.50;99.90;;;;;;5072806;28;20276;-60
2021/05/27 13:30:06;;;;;;;1.33;1.23;;;13.60;99.90;;;;;;5089696;28;20193;-61
2021/05/27 13:32:35;;;;;;;1.50;1.40;;;13.60;99.90;;;;;;5093959;28;20636;-61